Time;durP1;ratioP1;P1;durP2;ratioP2;P2;SDS_P1;SDS_P2;PMS_P1;PMS_P2;Temp;Humidity;BMP_temperature;BMP_pressure;BME280_temperature;BME280_humidity;BME280_pressure;Samples;Min_cycle;Max_cycle;Signal;HPM_P1;HPM_P2
2022/11/27 00:02:09;;;;;;;49.38;15.68;;;-0.50;99.90;;;;;;5029245;28;20079;-66
2022/11/27 00:04:34;;;;;;;45.55;15.15;;;-0.40;99.90;;;;;;5028583;28;20037;-66
2022/11/27 00:07:00;;;;;;;36.78;15.10;;;-0.40;99.90;;;;;;5029416;28;20026;-66
2022/11/27 00:09:26;;;;;;;37.92;15.30;;;-0.40;99.90;;;;;;5027936;28;20033;-66
2022/11/27 00:11:51;;;;;;;35.85;14.25;;;-0.40;99.90;;;;;;5029051;28;20049;-66
2022/11/27 00:14:17;;;;;;;36.65;15.25;;;-0.40;99.90;;;;;;5028945;28;20033;-71
2022/11/27 00:16:43;;;;;;;36.78;15.95;;;-0.50;99.90;;;;;;5028713;28;20029;-64
2022/11/27 00:19:10;;;;;;;42.92;16.08;;;-0.50;99.90;;;;;;5029191;28;20101;-66
2022/11/27 00:21:36;;;;;;;32.00;13.45;;;-0.40;99.90;;;;;;5028077;28;20490;-66
2022/11/27 00:24:04;;;;;;;36.25;14.95;;;-0.40;99.90;;;;;;5029366;28;20393;-67
2022/11/27 00:26:30;;;;;;;42.90;16.30;;;-0.40;99.90;;;;;;5028526;28;20033;-65
2022/11/27 00:28:56;;;;;;;53.13;16.83;;;-0.40;99.90;;;;;;5028816;28;20029;-66
2022/11/27 00:31:28;;;;;;;35.65;15.18;;;-0.50;99.90;;;;;;5027635;28;20037;-66
2022/11/27 00:33:59;;;;;;;51.50;16.80;;;-0.50;99.90;;;;;;5026709;28;20049;-65
2022/11/27 00:36:26;;;;;;;39.05;16.00;;;-0.60;99.90;;;;;;5028080;28;20029;-67
2022/11/27 00:38:52;;;;;;;52.80;17.70;;;-0.60;99.90;;;;;;5029155;28;20041;-67
2022/11/27 00:41:20;;;;;;;43.97;17.83;;;-0.60;99.90;;;;;;5028500;28;20045;-70
2022/11/27 00:43:46;;;;;;;37.45;17.23;;;-0.60;99.90;;;;;;5028680;28;20044;-66
2022/11/27 00:46:16;;;;;;;56.25;18.40;;;-0.60;99.90;;;;;;5029039;28;20029;-68
2022/11/27 00:48:42;;;;;;;37.85;15.20;;;-0.60;99.90;;;;;;5026506;28;20455;-64
2022/11/27 00:51:11;;;;;;;39.33;15.20;;;-0.70;99.90;;;;;;5028634;28;20041;-66
2022/11/27 00:53:36;;;;;;;35.92;15.00;;;-0.70;99.90;;;;;;5027432;28;20482;-66
2022/11/27 00:56:02;;;;;;;44.13;16.05;;;-0.70;99.90;;;;;;5028600;28;20101;-68
2022/11/27 00:58:29;;;;;;;51.40;16.98;;;-0.70;99.90;;;;;;5025341;28;20038;-65
2022/11/27 01:01:00;;;;;;;38.80;16.80;;;-0.80;99.90;;;;;;5028404;28;20024;-66
2022/11/27 01:03:27;;;;;;;36.83;16.30;;;-0.80;99.90;;;;;;5027472;28;20036;-66
2022/11/27 01:05:53;;;;;;;43.53;17.00;;;-0.90;99.90;;;;;;5026733;28;20045;-66
2022/11/27 01:08:19;;;;;;;55.92;18.20;;;-0.80;99.90;;;;;;5028380;28;20030;-71
2022/11/27 01:10:54;;;;;;;49.70;17.27;;;-0.80;99.90;;;;;;5027963;28;20049;-66
2022/11/27 01:13:22;;;;;;;45.58;19.45;;;-0.80;99.90;;;;;;5027673;28;20053;-71
2022/11/27 01:15:58;;;;;;;42.70;18.33;;;-0.90;99.90;;;;;;5027014;28;20116;-66
2022/11/27 01:18:24;;;;;;;47.10;19.17;;;-0.80;99.90;;;;;;5027489;28;20029;-68
2022/11/27 01:20:53;;;;;;;47.13;19.75;;;-0.90;99.90;;;;;;5028274;28;20386;-63
2022/11/27 01:23:20;;;;;;;43.67;17.15;;;-0.90;99.90;;;;;;5028302;28;20037;-68
2022/11/27 01:25:46;;;;;;;46.33;18.67;;;-0.80;99.90;;;;;;5027949;28;20029;-66
2022/11/27 01:28:11;;;;;;;40.22;16.40;;;-0.80;99.90;;;;;;5028325;28;20596;-66
2022/11/27 01:30:37;;;;;;;38.13;16.20;;;-0.80;99.90;;;;;;5027114;28;20414;-67
2022/11/27 01:33:03;;;;;;;51.15;20.00;;;-0.90;99.90;;;;;;5028382;28;20037;-64
2022/11/27 01:35:29;;;;;;;43.50;18.70;;;-0.80;99.90;;;;;;5027523;28;20029;-66
2022/11/27 01:37:54;;;;;;;40.47;17.45;;;-0.80;99.90;;;;;;5028216;28;20053;-65
2022/11/27 01:40:21;;;;;;;41.42;17.25;;;-0.90;99.90;;;;;;5027873;28;20035;-67
2022/11/27 01:42:46;;;;;;;40.35;17.30;;;-1.00;99.90;;;;;;5027678;28;20072;-66
2022/11/27 01:45:16;;;;;;;39.90;16.73;;;-1.00;99.90;;;;;;5028521;28;20030;-67
2022/11/27 01:47:51;;;;;;;34.47;15.60;;;-1.00;99.90;;;;;;5027458;28;20028;-66
2022/11/27 01:50:26;;;;;;;33.78;14.98;;;-1.10;99.90;;;;;;5028146;28;20046;-66
2022/11/27 01:52:56;;;;;;;40.97;17.38;;;-1.00;99.90;;;;;;5028177;28;20124;-66
2022/11/27 01:55:25;;;;;;;47.17;18.50;;;-1.00;99.90;;;;;;5027651;28;20043;-70
2022/11/27 01:57:56;;;;;;;46.88;18.25;;;-1.10;99.90;;;;;;5028045;28;20033;-65
2022/11/27 02:00:22;;;;;;;36.15;14.88;;;-1.20;99.90;;;;;;5027956;28;20037;-68
2022/11/27 02:02:48;;;;;;;41.65;14.93;;;-1.20;99.90;;;;;;5027193;28;20033;-65
2022/11/27 02:05:18;;;;;;;39.22;14.05;;;-1.10;99.90;;;;;;5028085;28;20025;-66
2022/11/27 02:07:45;;;;;;;41.22;15.73;;;-0.90;99.90;;;;;;5027279;28;20024;-66
2022/11/27 02:10:11;;;;;;;42.30;14.32;;;-0.70;99.90;;;;;;5030326;28;20108;-65
2022/11/27 02:12:45;;;;;;;38.83;16.15;;;-0.60;99.90;;;;;;5030587;28;20125;-66
2022/11/27 02:15:29;;;;;;;38.65;15.90;;;-0.50;99.90;;;;;;5031469;28;20047;-66
2022/11/27 02:18:17;;;;;;;36.47;11.05;;;-0.60;99.90;;;;;;5031478;28;20034;-65
2022/11/27 02:21:02;;;;;;;33.17;11.98;;;-0.30;99.90;;;;;;5030004;28;20029;-64
2022/11/27 02:24:09;;;;;;;39.63;15.38;;;0.20;99.90;;;;;;5030549;28;20482;-65
2022/11/27 02:27:02;;;;;;;45.20;15.70;;;0.30;99.90;;;;;;5030398;28;20402;-65
2022/11/27 02:29:34;;;;;;;44.78;17.75;;;0.10;99.90;;;;;;5030595;28;20037;-69
2022/11/27 02:32:34;;;;;;;73.68;20.25;;;-0.20;99.90;;;;;;5031187;28;20052;-65
2022/11/27 02:35:07;;;;;;;47.40;17.98;;;-0.50;99.90;;;;;;5029734;28;20041;-64
2022/11/27 02:37:38;;;;;;;46.50;17.90;;;-0.80;99.90;;;;;;5030680;28;20040;-65
2022/11/27 02:40:16;;;;;;;36.72;13.98;;;-0.80;99.90;;;;;;5031139;28;20518;-63
2022/11/27 02:43:08;;;;;;;41.88;14.30;;;-0.80;99.90;;;;;;5030430;28;20094;-67
2022/11/27 02:45:41;;;;;;;38.70;14.25;;;-0.80;99.90;;;;;;5029854;28;20037;-66
2022/11/27 02:48:08;;;;;;;34.30;13.68;;;-0.90;99.90;;;;;;5029194;28;20111;-65
2022/11/27 02:50:36;;;;;;;41.70;15.23;;;-0.80;99.90;;;;;;5030130;28;20065;-65
2022/11/27 02:53:07;;;;;;;38.92;16.33;;;-0.50;99.90;;;;;;5030824;28;20037;-65
2022/11/27 02:55:34;;;;;;;41.10;15.77;;;-0.80;99.90;;;;;;5030035;28;20043;-65
2022/11/27 02:58:04;;;;;;;38.53;15.32;;;-0.90;99.90;;;;;;5030722;28;20124;-65
2022/11/27 03:00:33;;;;;;;30.60;11.65;;;-1.00;99.90;;;;;;5029880;28;20028;-66
2022/11/27 03:03:03;;;;;;;36.22;14.98;;;-1.00;99.90;;;;;;5030469;28;20406;-66
2022/11/27 03:05:33;;;;;;;39.13;16.92;;;-1.00;99.90;;;;;;5029177;28;20037;-70
2022/11/27 03:08:06;;;;;;;38.25;15.65;;;-1.10;99.90;;;;;;5030285;28;20033;-64
2022/11/27 03:11:11;;;;;;;42.47;17.75;;;-1.20;99.90;;;;;;5029618;28;20037;-67
2022/11/27 03:13:42;;;;;;;41.95;17.27;;;-1.30;99.90;;;;;;5029293;28;20116;-65
2022/11/27 03:16:25;;;;;;;39.65;15.68;;;-1.40;99.90;;;;;;5030397;28;20029;-63
2022/11/27 03:18:56;;;;;;;36.13;15.75;;;-1.40;99.90;;;;;;5029876;28;20483;-65
2022/11/27 03:21:29;;;;;;;33.67;14.68;;;-1.40;99.90;;;;;;5029378;28;20072;-66
2022/11/27 03:23:56;;;;;;;43.80;16.13;;;-1.40;99.90;;;;;;5029705;28;20030;-65
2022/11/27 03:26:22;;;;;;;37.30;15.20;;;-1.30;99.90;;;;;;5030089;28;20129;-67
2022/11/27 03:28:49;;;;;;;38.90;13.68;;;-1.30;99.90;;;;;;5029054;28;20187;-66
2022/11/27 03:31:15;;;;;;;32.30;12.48;;;-1.20;99.90;;;;;;5029262;28;20033;-65
2022/11/27 03:33:41;;;;;;;35.13;14.73;;;-1.10;99.90;;;;;;5029150;28;20036;-65
2022/11/27 03:36:15;;;;;;;35.25;13.90;;;-1.10;99.90;;;;;;5029812;28;20385;-65
2022/11/27 03:38:42;;;;;;;32.78;13.25;;;-1.20;99.90;;;;;;5029003;28;20029;-65
2022/11/27 03:41:23;;;;;;;35.80;14.70;;;-1.30;99.90;;;;;;5029676;28;20030;-65
2022/11/27 03:44:32;;;;;;;34.40;13.80;;;-1.30;99.90;;;;;;5028999;28;20699;-65
2022/11/27 03:47:30;;;;;;;35.30;14.13;;;-1.20;99.90;;;;;;5026598;28;20562;-65
2022/11/27 03:50:04;;;;;;;34.25;12.75;;;-1.20;99.90;;;;;;4973239;28;20037;-64
2022/11/27 03:52:35;;;;;;;33.55;13.18;;;-1.20;99.90;;;;;;5026396;28;20591;-70
2022/11/27 03:55:08;;;;;;;36.13;14.27;;;-1.20;99.90;;;;;;5026440;28;20025;-66
2022/11/27 03:57:43;;;;;;;38.13;11.73;;;-1.20;99.90;;;;;;5025689;28;20126;-66
2022/11/27 04:00:10;;;;;;;31.92;11.60;;;-1.10;99.90;;;;;;5026618;28;20029;-63
2022/11/27 04:02:48;;;;;;;33.70;11.00;;;-0.90;99.90;;;;;;5008930;28;20170;-65
2022/11/27 04:05:14;;;;;;;35.97;11.93;;;-0.80;99.90;;;;;;5026502;28;20107;-66
2022/11/27 04:07:41;;;;;;;36.28;10.75;;;-0.70;99.90;;;;;;5025757;28;20029;-64
2022/11/27 04:10:08;;;;;;;32.95;11.00;;;-0.50;99.90;;;;;;5026391;28;20091;-65
2022/11/27 04:12:34;;;;;;;35.45;14.57;;;-0.30;99.90;;;;;;5025497;28;20092;-70
2022/11/27 04:14:59;;;;;;;33.05;13.50;;;-0.40;99.90;;;;;;5026366;28;20469;-64
2022/11/27 04:17:25;;;;;;;37.83;14.13;;;-0.60;99.90;;;;;;5027243;28;20204;-65
2022/11/27 04:19:51;;;;;;;33.55;13.68;;;-0.80;99.90;;;;;;5028345;28;20772;-64
2022/11/27 04:22:17;;;;;;;31.50;12.25;;;-0.70;99.90;;;;;;5009043;28;20033;-65
2022/11/27 04:24:42;;;;;;;32.05;12.15;;;-0.70;99.90;;;;;;5008492;28;20125;-67
2022/11/27 04:27:08;;;;;;;29.42;12.40;;;-0.80;99.90;;;;;;5009297;28;20109;-65
2022/11/27 04:29:35;;;;;;;28.15;12.35;;;-0.90;99.90;;;;;;5008175;28;20029;-67
2022/11/27 04:32:01;;;;;;;32.92;12.05;;;-1.00;99.90;;;;;;5009065;28;20034;-65
2022/11/27 04:34:27;;;;;;;32.42;11.90;;;-1.00;99.90;;;;;;5008243;28;20037;-65
2022/11/27 04:36:52;;;;;;;29.35;12.05;;;-1.00;99.90;;;;;;5008467;28;20026;-64
2022/11/27 04:39:18;;;;;;;28.92;12.40;;;-1.00;99.90;;;;;;5012412;28;20363;-64
2022/11/27 04:41:44;;;;;;;27.50;12.07;;;-1.00;99.90;;;;;;5027949;28;20037;-66
2022/11/27 04:44:10;;;;;;;30.05;12.25;;;-0.90;99.90;;;;;;5028760;28;20044;-65
2022/11/27 04:46:36;;;;;;;34.00;12.05;;;-1.00;99.90;;;;;;5028061;28;20043;-68
2022/11/27 04:49:02;;;;;;;30.02;12.20;;;-1.00;99.90;;;;;;5028810;28;20418;-64
2022/11/27 04:51:27;;;;;;;28.10;12.40;;;-1.10;99.90;;;;;;5028781;28;20382;-65
2022/11/27 04:53:53;;;;;;;29.10;11.50;;;-1.10;99.90;;;;;;5028007;28;20202;-65
2022/11/27 04:56:19;;;;;;;31.40;12.27;;;-1.30;99.90;;;;;;5028655;28;20036;-66
2022/11/27 04:58:44;;;;;;;31.13;11.98;;;-1.20;99.90;;;;;;5027820;28;20034;-66
2022/11/27 05:01:10;;;;;;;31.40;12.63;;;-1.20;99.90;;;;;;5028347;28;20044;-64
2022/11/27 05:03:36;;;;;;;27.10;11.23;;;-1.20;99.90;;;;;;5026709;28;20033;-70
2022/11/27 05:06:01;;;;;;;28.95;12.30;;;-1.20;99.90;;;;;;5027340;28;20079;-65
2022/11/27 05:08:30;;;;;;;31.65;12.20;;;-1.20;99.90;;;;;;5028541;28;20164;-65
2022/11/27 05:11:11;;;;;;;30.35;12.23;;;-1.20;99.90;;;;;;5027569;28;20022;-64
2022/11/27 05:13:37;;;;;;;29.17;11.55;;;-1.30;99.90;;;;;;5027774;28;20064;-70
2022/11/27 05:16:03;;;;;;;27.75;12.00;;;-1.30;99.90;;;;;;5028226;28;20029;-65
2022/11/27 05:18:29;;;;;;;34.22;12.15;;;-1.30;99.90;;;;;;5028783;28;20033;-65
2022/11/27 05:20:59;;;;;;;34.33;13.43;;;-1.30;99.90;;;;;;5027280;28;20670;-66
2022/11/27 05:23:25;;;;;;;28.83;12.65;;;-1.30;99.90;;;;;;5028704;28;20025;-65
2022/11/27 05:25:51;;;;;;;35.92;14.00;;;-1.40;99.90;;;;;;5027598;28;20216;-65
2022/11/27 05:28:17;;;;;;;36.38;14.43;;;-1.40;99.90;;;;;;5028329;28;20040;-66
2022/11/27 05:30:43;;;;;;;33.67;13.82;;;-1.40;99.90;;;;;;5027158;28;20029;-65
2022/11/27 05:33:09;;;;;;;31.55;12.40;;;-1.40;99.90;;;;;;5028041;28;20130;-66
2022/11/27 05:35:34;;;;;;;33.05;12.80;;;-1.40;99.90;;;;;;5028017;28;20036;-69
2022/11/27 05:38:00;;;;;;;38.17;11.77;;;-1.40;99.90;;;;;;5027744;28;20055;-63
2022/11/27 05:40:25;;;;;;;30.60;12.00;;;-1.40;99.90;;;;;;5028172;28;20386;-65
2022/11/27 05:42:51;;;;;;;28.90;11.32;;;-1.40;99.90;;;;;;5027511;28;20045;-66
2022/11/27 05:45:17;;;;;;;32.70;12.57;;;-1.40;99.90;;;;;;5030192;28;20065;-67
2022/11/27 05:47:42;;;;;;;29.55;11.68;;;-1.40;99.90;;;;;;5031186;28;20477;-65
2022/11/27 05:50:08;;;;;;;27.20;11.35;;;-1.50;99.90;;;;;;5031876;28;20026;-65
2022/11/27 05:52:34;;;;;;;28.40;11.80;;;-1.50;99.90;;;;;;5031917;28;20032;-65
2022/11/27 05:54:59;;;;;;;26.80;11.45;;;-1.60;99.90;;;;;;5031034;28;20109;-65
2022/11/27 05:57:25;;;;;;;30.70;11.88;;;-1.60;99.90;;;;;;5031837;28;20029;-66
2022/11/27 05:59:51;;;;;;;33.15;11.68;;;-1.60;99.90;;;;;;5030308;28;20060;-65
2022/11/27 06:02:16;;;;;;;33.08;12.98;;;-1.60;99.90;;;;;;5031265;28;20037;-64
2022/11/27 06:04:42;;;;;;;30.52;12.45;;;-1.60;99.90;;;;;;5030700;28;20128;-66
2022/11/27 06:07:07;;;;;;;28.67;12.73;;;-1.70;99.90;;;;;;5031352;28;20104;-65
2022/11/27 06:09:36;;;;;;;30.20;12.60;;;-1.70;99.90;;;;;;5031696;28;20033;-64
2022/11/27 06:12:01;;;;;;;31.80;12.55;;;-2.00;99.90;;;;;;5030694;28;20050;-64
2022/11/27 06:14:27;;;;;;;33.45;12.55;;;-2.00;99.90;;;;;;5031389;28;20467;-65
2022/11/27 06:16:53;;;;;;;54.88;19.70;;;-1.80;99.90;;;;;;5030708;28;20056;-65
2022/11/27 06:19:18;;;;;;;42.58;15.73;;;-1.70;99.90;;;;;;5031360;28;20459;-65
2022/11/27 06:21:45;;;;;;;27.20;10.57;;;-1.70;99.90;;;;;;5030227;28;20080;-64
2022/11/27 06:24:11;;;;;;;27.48;9.55;;;-1.70;99.90;;;;;;5031037;28;20035;-64
2022/11/27 06:26:36;;;;;;;27.38;10.35;;;-1.30;99.90;;;;;;5030965;28;20116;-65
2022/11/27 06:29:02;;;;;;;31.30;11.45;;;-1.10;99.90;;;;;;5029130;28;20064;-65
2022/11/27 06:31:31;;;;;;;22.73;9.02;;;-0.90;99.90;;;;;;5031151;28;20033;-63
2022/11/27 06:33:57;;;;;;;26.15;8.43;;;-0.60;99.90;;;;;;5030311;28;20034;-65
2022/11/27 06:36:27;;;;;;;32.85;11.60;;;-0.20;99.90;;;;;;5030944;28;20577;-65
2022/11/27 06:38:52;;;;;;;28.45;10.55;;;0.00;99.90;;;;;;5030376;28;20540;-65
2022/11/27 06:41:21;;;;;;;27.90;10.20;;;-0.20;99.90;;;;;;5030682;28;20128;-63
2022/11/27 06:43:47;;;;;;;22.17;9.30;;;-0.30;99.90;;;;;;5030199;28;20049;-65
2022/11/27 06:46:19;;;;;;;26.50;9.80;;;-0.30;99.90;;;;;;5030972;28;20072;-64
2022/11/27 06:48:46;;;;;;;27.80;10.38;;;-0.40;99.90;;;;;;5030110;28;20021;-66
2022/11/27 06:51:14;;;;;;;31.17;10.65;;;-0.40;99.90;;;;;;5030328;28;20033;-66
2022/11/27 06:53:40;;;;;;;26.77;10.10;;;-0.40;99.90;;;;;;5030475;28;20382;-69
2022/11/27 06:56:09;;;;;;;23.15;9.40;;;-0.30;99.90;;;;;;5028981;28;20037;-65
2022/11/27 06:58:35;;;;;;;35.35;11.55;;;-0.30;99.90;;;;;;5030606;28;20036;-65
2022/11/27 07:01:03;;;;;;;25.88;10.27;;;-0.20;99.90;;;;;;5029706;28;20037;-66
2022/11/27 07:03:29;;;;;;;25.70;11.07;;;-0.40;99.90;;;;;;5030623;28;20497;-65
2022/11/27 07:05:58;;;;;;;29.73;11.85;;;-0.50;99.90;;;;;;5029432;28;20032;-67
2022/11/27 07:08:24;;;;;;;29.63;11.50;;;-0.70;99.90;;;;;;5030325;28;20526;-66
2022/11/27 07:10:50;;;;;;;28.20;11.20;;;-0.90;99.90;;;;;;5029307;28;20036;-64
2022/11/27 07:13:15;;;;;;;26.92;11.02;;;-1.10;99.90;;;;;;5030452;28;20107;-66
2022/11/27 07:15:41;;;;;;;28.65;11.07;;;-1.10;99.90;;;;;;5029987;28;20207;-70
2022/11/27 07:18:07;;;;;;;31.42;11.00;;;-1.00;99.90;;;;;;5029802;28;20036;-67
2022/11/27 07:20:32;;;;;;;24.77;10.27;;;-0.90;99.90;;;;;;5030394;28;20057;-66
2022/11/27 07:22:58;;;;;;;23.15;10.10;;;-0.90;99.90;;;;;;5028105;28;20133;-65
2022/11/27 07:25:24;;;;;;;37.72;14.93;;;-0.70;99.90;;;;;;5029958;28;20029;-66
2022/11/27 07:27:49;;;;;;;37.55;13.32;;;-0.50;99.90;;;;;;5029413;28;20021;-65
2022/11/27 07:30:15;;;;;;;32.95;11.35;;;-0.30;99.90;;;;;;5030188;28;20454;-66
2022/11/27 07:32:41;;;;;;;24.77;9.15;;;-0.20;99.90;;;;;;5030082;28;20034;-65
2022/11/27 07:35:07;;;;;;;24.55;9.18;;;-0.10;99.90;;;;;;5029663;28;20034;-66
2022/11/27 07:37:33;;;;;;;28.42;10.65;;;0.10;99.90;;;;;;5030068;28;20036;-65
2022/11/27 07:39:59;;;;;;;21.38;8.95;;;0.10;99.90;;;;;;5028662;28;20053;-65
2022/11/27 07:42:24;;;;;;;32.67;13.05;;;0.20;99.90;;;;;;5029893;28;20078;-65
2022/11/27 07:44:50;;;;;;;34.78;13.85;;;0.20;99.90;;;;;;5028998;28;20034;-65
2022/11/27 07:47:15;;;;;;;36.30;14.52;;;-0.10;99.90;;;;;;5029856;28;20112;-66
2022/11/27 07:49:41;;;;;;;35.45;15.23;;;-0.20;99.90;;;;;;5029837;28;20091;-66
2022/11/27 07:52:07;;;;;;;46.53;16.20;;;-0.20;99.90;;;;;;5028707;28;20107;-64
2022/11/27 07:54:33;;;;;;;31.55;13.32;;;-0.20;99.90;;;;;;5029760;28;20105;-66
2022/11/27 07:56:59;;;;;;;37.20;13.68;;;-0.30;99.90;;;;;;5028832;28;20076;-65
2022/11/27 07:59:25;;;;;;;35.30;14.52;;;-0.20;99.90;;;;;;5029490;28;20053;-67
2022/11/27 08:01:50;;;;;;;32.70;13.43;;;-0.20;99.90;;;;;;5028645;28;20099;-65
2022/11/27 08:04:16;;;;;;;34.25;14.50;;;-0.20;99.90;;;;;;5029464;28;20756;-65
2022/11/27 08:06:42;;;;;;;34.40;13.98;;;-0.10;99.90;;;;;;5029063;28;20048;-66
2022/11/27 08:09:07;;;;;;;32.10;13.18;;;0.00;99.90;;;;;;5028544;28;20029;-66
2022/11/27 08:11:34;;;;;;;28.85;12.90;;;0.10;99.90;;;;;;5028712;28;20064;-66
2022/11/27 08:14:04;;;;;;;41.88;17.02;;;0.10;99.90;;;;;;5027209;28;20057;-65
2022/11/27 08:16:30;;;;;;;;;;;0.10;99.90;;;;;;5029645;28;20022;-63
2022/11/27 08:18:56;;;;;;;58.13;20.38;;;0.20;99.90;;;;;;5028412;28;19909;-65
2022/11/27 08:21:22;;;;;;;45.83;18.67;;;0.20;99.90;;;;;;5029196;28;20059;-66
2022/11/27 08:23:48;;;;;;;41.85;18.23;;;0.30;99.90;;;;;;5027902;28;20048;-69
2022/11/27 08:26:14;;;;;;;38.55;16.88;;;0.30;99.90;;;;;;5028640;28;20033;-66
2022/11/27 08:28:40;;;;;;;42.33;17.83;;;0.40;99.90;;;;;;5029052;28;20025;-65
2022/11/27 08:31:08;;;;;;;38.78;15.68;;;0.40;99.90;;;;;;5028236;28;20017;-66
2022/11/27 08:33:34;;;;;;;48.05;20.98;;;0.60;99.90;;;;;;5028838;28;20033;-66
2022/11/27 08:36:00;;;;;;;48.15;20.58;;;0.80;99.90;;;;;;5027899;28;20026;-66
2022/11/27 08:38:26;;;;;;;60.55;25.50;;;0.90;99.90;;;;;;5027493;28;20026;-63
2022/11/27 08:41:03;;;;;;;48.00;20.65;;;1.10;99.90;;;;;;5028086;28;20056;-65
2022/11/27 08:43:30;;;;;;;64.00;25.25;;;1.40;99.90;;;;;;5028987;28;20096;-65
2022/11/27 08:45:57;;;;;;;54.13;24.08;;;1.40;99.90;;;;;;5027976;28;20021;-66
2022/11/27 08:48:23;;;;;;;42.42;17.23;;;1.40;99.90;;;;;;5028643;28;20524;-63
2022/11/27 08:50:50;;;;;;;42.40;14.13;;;1.70;99.90;;;;;;5026973;28;20029;-70
2022/11/27 08:53:17;;;;;;;26.50;9.05;;;2.20;99.90;;;;;;5028349;28;20029;-66
2022/11/27 08:55:43;;;;;;;23.73;10.55;;;2.60;99.90;;;;;;5028660;28;20465;-66
2022/11/27 08:58:09;;;;;;;19.38;9.10;;;2.90;99.90;;;;;;5028083;28;20029;-66
2022/11/27 09:00:36;;;;;;;24.23;10.13;;;3.00;99.90;;;;;;5028612;28;20033;-66
2022/11/27 09:03:03;;;;;;;25.13;10.98;;;3.00;99.90;;;;;;5027786;28;20048;-68
2022/11/27 09:05:29;;;;;;;23.83;11.05;;;3.00;99.90;;;;;;5028580;28;20030;-67
2022/11/27 09:07:55;;;;;;;20.95;9.63;;;3.00;99.90;;;;;;5027844;28;20025;-66
2022/11/27 09:10:21;;;;;;;24.33;9.95;;;3.10;99.90;;;;;;5028537;28;20041;-66
2022/11/27 09:12:48;;;;;;;19.98;8.07;;;3.10;99.90;;;;;;5027331;28;20172;-69
2022/11/27 09:15:15;;;;;;;22.20;9.70;;;3.20;99.90;;;;;;5027912;28;20109;-68
2022/11/27 09:17:41;;;;;;;23.08;9.13;;;3.30;99.90;;;;;;5028580;28;20021;-64
2022/11/27 09:20:07;;;;;;;17.40;8.23;;;3.30;99.90;;;;;;5029736;28;20596;-66
2022/11/27 09:22:33;;;;;;;17.67;7.38;;;3.40;99.90;;;;;;5032695;28;20497;-65
2022/11/27 09:24:59;;;;;;;14.77;7.28;;;3.50;99.90;;;;;;5031721;28;20033;-65
2022/11/27 09:27:26;;;;;;;13.52;6.82;;;3.60;99.90;;;;;;5032268;28;20060;-66
2022/11/27 09:29:51;;;;;;;14.25;6.20;;;3.70;99.90;;;;;;5031883;28;20060;-70
2022/11/27 09:32:17;;;;;;;12.60;5.82;;;3.80;99.90;;;;;;5032164;28;20072;-66
2022/11/27 09:34:43;;;;;;;12.80;5.78;;;3.80;99.90;;;;;;5032440;28;20032;-65
2022/11/27 09:37:09;;;;;;;15.57;5.65;;;4.00;99.90;;;;;;5031385;28;20104;-67
2022/11/27 09:39:35;;;;;;;11.52;5.53;;;4.20;99.90;;;;;;5030882;28;20124;-68
2022/11/27 09:42:03;;;;;;;14.15;5.53;;;4.50;99.90;;;;;;5029812;28;20390;-65
2022/11/27 09:44:28;;;;;;;15.23;7.03;;;4.60;99.90;;;;;;5031847;28;20550;-67
2022/11/27 09:46:59;;;;;;;9.80;5.00;;;4.80;99.90;;;;;;5031297;28;20053;-66
2022/11/27 09:49:32;;;;;;;12.30;5.80;;;4.90;99.90;;;;;;5032121;28;20492;-66
2022/11/27 09:51:58;;;;;;;11.82;5.13;;;5.00;99.90;;;;;;5031157;28;20037;-64
2022/11/27 09:54:36;;;;;;;12.20;4.85;;;5.10;99.90;;;;;;5031763;28;20103;-65
2022/11/27 09:57:04;;;;;;;11.88;5.20;;;5.20;99.90;;;;;;5031171;28;20041;-65
2022/11/27 09:59:45;;;;;;;10.88;4.72;;;5.40;99.90;;;;;;5031827;28;20120;-65
2022/11/27 10:02:27;;;;;;;12.13;6.10;;;5.60;99.90;;;;;;5030705;28;20103;-65
2022/11/27 10:04:53;;;;;;;11.05;4.72;;;5.80;99.90;;;;;;5031559;28;20401;-67
2022/11/27 10:07:32;;;;;;;6.70;3.63;;;6.10;99.90;;;;;;5030801;28;20038;-65
2022/11/27 10:10:21;;;;;;;10.73;4.30;;;6.30;99.90;;;;;;5023435;28;20037;-64
2022/11/27 10:13:08;;;;;;;9.52;3.65;;;6.50;99.90;;;;;;5020601;28;20092;-66
2022/11/27 10:15:43;;;;;;;13.23;4.53;;;6.70;99.90;;;;;;5031932;28;20040;-66
2022/11/27 10:18:30;;;;;;;8.15;3.35;;;6.60;99.90;;;;;;5030759;28;20025;-65
2022/11/27 10:21:08;;;;;;;12.05;5.85;;;6.60;99.90;;;;;;5030832;28;20032;-68
2022/11/27 10:23:45;;;;;;;8.23;4.03;;;6.70;99.90;;;;;;5031345;28;20041;-66
2022/11/27 10:26:32;;;;;;;5.70;2.83;;;6.90;99.90;;;;;;5030370;28;20025;-65
2022/11/27 10:29:13;;;;;;;5.22;2.47;;;7.10;99.90;;;;;;5030491;28;20033;-66
2022/11/27 10:31:42;;;;;;;4.15;2.17;;;7.30;99.90;;;;;;5029955;28;20037;-65
2022/11/27 10:34:43;;;;;;;5.18;2.53;;;7.40;99.90;;;;;;5029881;28;20036;-65
2022/11/27 10:37:24;;;;;;;5.63;2.60;;;7.70;99.90;;;;;;5030391;28;20069;-65
2022/11/27 10:40:02;;;;;;;4.43;2.33;;;7.90;99.90;;;;;;5031202;28;20026;-63
2022/11/27 10:43:05;;;;;;;4.28;2.08;;;8.00;99.90;;;;;;5030699;28;20029;-65
2022/11/27 10:46:23;;;;;;;5.10;2.05;;;8.00;99.90;;;;;;5025836;28;20060;-65
2022/11/27 10:48:49;;;;;;;4.30;2.08;;;8.10;99.90;;;;;;5028073;28;20088;-64
2022/11/27 10:51:24;;;;;;;4.43;1.85;;;8.10;99.90;;;;;;5030168;28;20036;-65
2022/11/27 10:53:52;;;;;;;5.50;2.38;;;8.10;99.90;;;;;;5030878;28;20060;-64
2022/11/27 10:56:43;;;;;;;3.78;2.10;;;8.00;99.90;;;;;;5029798;28;20097;-65
2022/11/27 10:59:14;;;;;;;4.97;2.10;;;8.00;99.90;;;;;;5029787;28;20036;-65
2022/11/27 11:01:42;;;;;;;;;;;8.20;99.90;;;;;;5031025;28;20124;-65
2022/11/27 11:04:09;;;;;;;6.78;2.13;;;8.30;99.90;;;;;;5029817;28;19917;-64
2022/11/27 11:06:43;;;;;;;5.60;2.00;;;8.40;99.90;;;;;;5030660;28;20519;-65
2022/11/27 11:09:14;;;;;;;4.03;2.30;;;8.50;99.90;;;;;;5029804;28;20021;-65
2022/11/27 11:11:40;;;;;;;7.20;2.22;;;8.80;99.90;;;;;;5028885;28;20492;-64
2022/11/27 11:14:23;;;;;;;3.78;1.92;;;8.80;99.90;;;;;;5029666;28;20061;-64
2022/11/27 11:16:50;;;;;;;5.32;1.92;;;8.70;99.90;;;;;;5030443;28;20042;-65
2022/11/27 11:19:36;;;;;;;3.42;1.88;;;8.80;99.90;;;;;;5029470;28;20022;-65
2022/11/27 11:22:13;;;;;;;5.30;1.60;;;9.00;99.90;;;;;;5029486;28;20508;-66
2022/11/27 11:24:48;;;;;;;5.00;1.42;;;9.00;99.90;;;;;;5030086;28;20112;-65
2022/11/27 11:27:21;;;;;;;4.03;1.67;;;9.20;99.90;;;;;;5029471;28;20130;-63
2022/11/27 11:29:53;;;;;;;3.60;1.70;;;9.30;99.90;;;;;;5030277;28;20083;-65
2022/11/27 11:32:19;;;;;;;2.97;1.70;;;9.30;99.90;;;;;;5029276;28;20029;-66
2022/11/27 11:35:02;;;;;;;2.88;1.70;;;9.40;99.90;;;;;;5030206;28;20366;-64
2022/11/27 11:37:31;;;;;;;4.90;1.98;;;9.40;99.90;;;;;;5030151;28;20029;-64
2022/11/27 11:40:22;;;;;;;3.40;1.80;;;9.30;99.90;;;;;;5029845;28;20037;-68
2022/11/27 11:42:57;;;;;;;2.50;1.27;;;9.20;99.90;;;;;;5028699;28;20460;-64
2022/11/27 11:45:25;;;;;;;4.65;2.03;;;9.40;99.90;;;;;;5029379;28;20038;-65
2022/11/27 11:48:03;;;;;;;2.95;1.60;;;9.50;99.90;;;;;;5029851;28;20029;-65
2022/11/27 11:50:51;;;;;;;2.83;1.70;;;9.70;99.90;;;;;;5029333;28;20030;-65
2022/11/27 11:53:21;;;;;;;2.78;1.65;;;9.50;99.90;;;;;;5029030;28;20036;-65
2022/11/27 11:56:11;;;;;;;2.65;1.52;;;9.40;99.90;;;;;;5029637;28;20033;-66
2022/11/27 11:59:18;;;;;;;4.60;2.00;;;9.30;99.90;;;;;;5028429;28;20033;-65
2022/11/27 12:01:53;;;;;;;3.88;1.80;;;9.50;99.90;;;;;;5026961;28;20233;-65
2022/11/27 12:04:46;;;;;;;4.72;2.00;;;9.60;99.90;;;;;;5027497;28;20031;-64
2022/11/27 12:07:24;;;;;;;2.55;1.38;;;9.80;99.90;;;;;;5028613;28;20038;-67
2022/11/27 12:10:44;;;;;;;6.20;2.63;;;9.70;99.90;;;;;;5029765;28;20048;-65
2022/11/27 12:13:15;;;;;;;5.73;2.10;;;9.60;99.90;;;;;;4986846;28;20054;-65
2022/11/27 12:15:48;;;;;;;8.18;2.35;;;9.40;99.90;;;;;;4989465;28;20403;-65
2022/11/27 12:18:24;;;;;;;4.88;2.00;;;9.40;99.90;;;;;;4984081;28;20053;-65
2022/11/27 12:21:03;;;;;;;4.35;2.00;;;9.60;99.90;;;;;;4998065;28;20100;-65
2022/11/27 12:23:45;;;;;;;4.05;2.13;;;9.80;99.90;;;;;;4990163;28;20042;-64
2022/11/27 12:26:32;;;;;;;3.92;1.95;;;9.90;99.90;;;;;;4996726;28;20525;-65
2022/11/27 12:29:19;;;;;;;4.03;2.08;;;9.90;99.90;;;;;;4993058;28;20034;-62
2022/11/27 12:32:00;;;;;;;4.25;1.83;;;10.00;99.90;;;;;;4977426;28;20110;-65
2022/11/27 12:34:37;;;;;;;;;;;9.90;99.90;;;;;;4993569;28;20113;-64
2022/11/27 12:37:15;;;;;;;4.68;2.40;;;9.50;99.90;;;;;;4981724;28;20337;-69
2022/11/27 12:39:59;;;;;;;4.93;2.45;;;9.00;99.90;;;;;;4986619;28;20117;-66
2022/11/27 12:42:48;;;;;;;3.35;1.67;;;8.80;99.90;;;;;;4981665;28;20048;-64
2022/11/27 12:45:18;;;;;;;2.90;1.80;;;8.70;99.90;;;;;;5033376;28;20038;-64
2022/11/27 12:48:01;;;;;;;;;;;8.80;99.90;;;;;;5033705;28;20034;-64
2022/11/27 12:50:53;;;;;;;3.65;1.85;;;8.80;99.90;;;;;;5027040;28;20463;-63
2022/11/27 12:53:27;;;;;;;2.60;1.20;;;9.20;99.90;;;;;;5036849;28;20048;-62
2022/11/27 12:56:02;;;;;;;3.63;1.85;;;9.60;99.90;;;;;;5041346;28;20504;-63
2022/11/27 12:58:32;;;;;;;3.60;1.70;;;9.60;99.90;;;;;;5035811;28;20039;-62